sensor_id;sensor_type;location;lat;lon;timestamp;temperature;humidity
975;DHT22;6115;49.296;10.602;2022-10-19T00:02:59;12.50;85.70
975;DHT22;6115;49.296;10.602;2022-10-19T00:07:59;12.50;86.00
975;DHT22;6115;49.296;10.602;2022-10-19T00:13:01;12.40;85.90
975;DHT22;6115;49.296;10.602;2022-10-19T00:18:01;12.30;85.80
975;DHT22;6115;49.296;10.602;2022-10-19T00:23:02;12.10;85.90
975;DHT22;6115;49.296;10.602;2022-10-19T00:28:03;12.20;86.00
975;DHT22;6115;49.296;10.602;2022-10-19T00:33:04;11.90;86.60
975;DHT22;6115;49.296;10.602;2022-10-19T00:38:04;12.00;86.90
975;DHT22;6115;49.296;10.602;2022-10-19T00:43:15;12.00;86.70
975;DHT22;6115;49.296;10.602;2022-10-19T00:48:28;12.00;86.60
975;DHT22;6115;49.296;10.602;2022-10-19T00:53:29;12.10;86.50
975;DHT22;6115;49.296;10.602;2022-10-19T00:58:31;12.00;86.10
975;DHT22;6115;49.296;10.602;2022-10-19T01:03:32;11.90;86.10
975;DHT22;6115;49.296;10.602;2022-10-19T01:08:33;12.00;86.30
975;DHT22;6115;49.296;10.602;2022-10-19T01:19:13;12.20;85.90
975;DHT22;6115;49.296;10.602;2022-10-19T01:35:06;12.40;86.60
975;DHT22;6115;49.296;10.602;2022-10-19T01:40:30;12.50;86.50
975;DHT22;6115;49.296;10.602;2022-10-19T01:45:51;12.60;86.10
975;DHT22;6115;49.296;10.602;2022-10-19T01:51:00;12.60;86.20
975;DHT22;6115;49.296;10.602;2022-10-19T01:56:04;12.60;86.50
975;DHT22;6115;49.296;10.602;2022-10-19T02:01:08;12.60;86.60
975;DHT22;6115;49.296;10.602;2022-10-19T02:06:10;12.70;86.70
975;DHT22;6115;49.296;10.602;2022-10-19T02:11:14;12.70;86.40
975;DHT22;6115;49.296;10.602;2022-10-19T02:16:25;12.70;86.30
975;DHT22;6115;49.296;10.602;2022-10-19T02:21:27;12.70;86.60
975;DHT22;6115;49.296;10.602;2022-10-19T02:26:28;12.80;86.50
975;DHT22;6115;49.296;10.602;2022-10-19T02:31:28;12.80;86.40
975;DHT22;6115;49.296;10.602;2022-10-19T02:36:29;12.80;86.40
975;DHT22;6115;49.296;10.602;2022-10-19T02:41:41;12.80;87.00
975;DHT22;6115;49.296;10.602;2022-10-19T02:46:47;12.80;87.20
975;DHT22;6115;49.296;10.602;2022-10-19T02:52:01;12.90;87.40
975;DHT22;6115;49.296;10.602;2022-10-19T02:57:23;13.00;88.10
975;DHT22;6115;49.296;10.602;2022-10-19T03:02:25;13.00;87.40
975;DHT22;6115;49.296;10.602;2022-10-19T03:07:26;13.10;87.40
975;DHT22;6115;49.296;10.602;2022-10-19T03:12:26;13.10;87.20
975;DHT22;6115;49.296;10.602;2022-10-19T03:17:27;13.10;87.30
975;DHT22;6115;49.296;10.602;2022-10-19T03:22:27;13.10;87.30
975;DHT22;6115;49.296;10.602;2022-10-19T03:27:28;13.10;87.20
975;DHT22;6115;49.296;10.602;2022-10-19T03:32:28;13.20;87.30
975;DHT22;6115;49.296;10.602;2022-10-19T03:37:29;13.20;87.10
975;DHT22;6115;49.296;10.602;2022-10-19T03:42:29;13.20;86.90
975;DHT22;6115;49.296;10.602;2022-10-19T03:47:30;13.30;87.00
975;DHT22;6115;49.296;10.602;2022-10-19T03:52:30;13.30;87.00
975;DHT22;6115;49.296;10.602;2022-10-19T03:57:31;13.30;87.00
975;DHT22;6115;49.296;10.602;2022-10-19T04:02:31;13.30;87.00
975;DHT22;6115;49.296;10.602;2022-10-19T04:07:32;13.30;87.10
975;DHT22;6115;49.296;10.602;2022-10-19T04:12:32;13.30;87.20
975;DHT22;6115;49.296;10.602;2022-10-19T04:17:33;13.40;87.20
975;DHT22;6115;49.296;10.602;2022-10-19T04:22:34;13.40;87.10
975;DHT22;6115;49.296;10.602;2022-10-19T04:27:34;13.50;87.20
975;DHT22;6115;49.296;10.602;2022-10-19T04:32:35;13.50;87.00
975;DHT22;6115;49.296;10.602;2022-10-19T04:37:35;13.40;86.90
975;DHT22;6115;49.296;10.602;2022-10-19T04:42:36;13.40;86.90
975;DHT22;6115;49.296;10.602;2022-10-19T04:47:36;13.50;87.00
975;DHT22;6115;49.296;10.602;2022-10-19T04:52:37;13.50;87.00
975;DHT22;6115;49.296;10.602;2022-10-19T04:57:38;13.50;87.00
975;DHT22;6115;49.296;10.602;2022-10-19T05:02:45;13.50;87.00
975;DHT22;6115;49.296;10.602;2022-10-19T05:07:47;13.60;87.10
975;DHT22;6115;49.296;10.602;2022-10-19T05:12:48;13.60;87.10
975;DHT22;6115;49.296;10.602;2022-10-19T05:17:48;13.50;87.00
975;DHT22;6115;49.296;10.602;2022-10-19T05:22:49;13.50;87.00
975;DHT22;6115;49.296;10.602;2022-10-19T05:27:51;13.40;86.90
975;DHT22;6115;49.296;10.602;2022-10-19T05:32:51;13.40;86.90
975;DHT22;6115;49.296;10.602;2022-10-19T05:37:55;13.40;86.90
975;DHT22;6115;49.296;10.602;2022-10-19T05:42:55;13.50;87.00
975;DHT22;6115;49.296;10.602;2022-10-19T05:47:56;13.30;86.80
975;DHT22;6115;49.296;10.602;2022-10-19T05:52:58;13.30;86.80
975;DHT22;6115;49.296;10.602;2022-10-19T05:57:58;13.30;86.80
975;DHT22;6115;49.296;10.602;2022-10-19T06:02:59;13.30;86.80
975;DHT22;6115;49.296;10.602;2022-10-19T06:07:59;13.30;86.80
975;DHT22;6115;49.296;10.602;2022-10-19T06:13:00;13.30;86.80
975;DHT22;6115;49.296;10.602;2022-10-19T06:18:02;13.40;86.90
975;DHT22;6115;49.296;10.602;2022-10-19T06:23:03;13.40;86.90
975;DHT22;6115;49.296;10.602;2022-10-19T06:28:04;13.50;86.70
975;DHT22;6115;49.296;10.602;2022-10-19T06:33:05;13.60;86.60
975;DHT22;6115;49.296;10.602;2022-10-19T06:38:06;13.60;86.10
975;DHT22;6115;49.296;10.602;2022-10-19T06:43:08;13.50;86.10
975;DHT22;6115;49.296;10.602;2022-10-19T06:48:10;13.60;86.50
975;DHT22;6115;49.296;10.602;2022-10-19T06:53:11;13.50;86.90
975;DHT22;6115;49.296;10.602;2022-10-19T06:58:11;13.50;86.70
975;DHT22;6115;49.296;10.602;2022-10-19T07:03:12;13.60;86.70
975;DHT22;6115;49.296;10.602;2022-10-19T07:08:12;13.70;86.50
975;DHT22;6115;49.296;10.602;2022-10-19T07:13:13;13.80;86.00
975;DHT22;6115;49.296;10.602;2022-10-19T07:18:14;13.90;85.70
975;DHT22;6115;49.296;10.602;2022-10-19T07:23:15;14.00;85.20
975;DHT22;6115;49.296;10.602;2022-10-19T07:28:15;14.00;85.30
975;DHT22;6115;49.296;10.602;2022-10-19T07:33:16;14.00;85.10
975;DHT22;6115;49.296;10.602;2022-10-19T07:38:16;14.00;84.80
975;DHT22;6115;49.296;10.602;2022-10-19T07:43:17;14.00;85.10
975;DHT22;6115;49.296;10.602;2022-10-19T07:48:18;14.10;85.20
975;DHT22;6115;49.296;10.602;2022-10-19T07:53:18;14.10;84.90
975;DHT22;6115;49.296;10.602;2022-10-19T07:58:19;14.00;85.60
975;DHT22;6115;49.296;10.602;2022-10-19T08:03:19;14.10;87.00
975;DHT22;6115;49.296;10.602;2022-10-19T08:08:20;14.20;86.60
975;DHT22;6115;49.296;10.602;2022-10-19T08:13:20;14.30;85.70
975;DHT22;6115;49.296;10.602;2022-10-19T08:18:21;14.40;85.40
975;DHT22;6115;49.296;10.602;2022-10-19T08:23:23;14.30;85.20
975;DHT22;6115;49.296;10.602;2022-10-19T08:28:24;14.40;84.20
975;DHT22;6115;49.296;10.602;2022-10-19T08:33:25;14.50;84.70
975;DHT22;6115;49.296;10.602;2022-10-19T08:38:25;14.60;84.80
975;DHT22;6115;49.296;10.602;2022-10-19T08:43:36;14.70;83.60
975;DHT22;6115;49.296;10.602;2022-10-19T08:48:38;14.60;83.40
975;DHT22;6115;49.296;10.602;2022-10-19T09:04:00;14.40;83.50
975;DHT22;6115;49.296;10.602;2022-10-19T09:09:02;14.10;84.10
975;DHT22;6115;49.296;10.602;2022-10-19T09:19:20;14.20;84.40
975;DHT22;6115;49.296;10.602;2022-10-19T09:24:42;14.10;83.50
975;DHT22;6115;49.296;10.602;2022-10-19T09:30:02;14.10;83.90
975;DHT22;6115;49.296;10.602;2022-10-19T09:35:26;14.20;83.50
975;DHT22;6115;49.296;10.602;2022-10-19T09:40:29;14.40;83.70
975;DHT22;6115;49.296;10.602;2022-10-19T09:50:30;14.20;83.50
975;DHT22;6115;49.296;10.602;2022-10-19T09:55:46;14.50;83.20
975;DHT22;6115;49.296;10.602;2022-10-19T10:00:49;14.60;82.40
975;DHT22;6115;49.296;10.602;2022-10-19T10:05:50;14.70;81.50
975;DHT22;6115;49.296;10.602;2022-10-19T10:11:10;14.70;81.00
975;DHT22;6115;49.296;10.602;2022-10-19T10:16:14;14.80;80.90
975;DHT22;6115;49.296;10.602;2022-10-19T10:21:24;14.60;80.40
975;DHT22;6115;49.296;10.602;2022-10-19T10:26:25;14.80;80.30
975;DHT22;6115;49.296;10.602;2022-10-19T10:31:28;14.90;79.30
975;DHT22;6115;49.296;10.602;2022-10-19T10:36:29;14.90;78.90
975;DHT22;6115;49.296;10.602;2022-10-19T10:41:36;15.10;79.10
975;DHT22;6115;49.296;10.602;2022-10-19T10:46:52;15.00;78.50
975;DHT22;6115;49.296;10.602;2022-10-19T10:51:56;15.00;78.80
975;DHT22;6115;49.296;10.602;2022-10-19T10:57:13;15.50;78.40
975;DHT22;6115;49.296;10.602;2022-10-19T11:02:35;15.30;76.30
975;DHT22;6115;49.296;10.602;2022-10-19T11:07:42;15.50;77.10
975;DHT22;6115;49.296;10.602;2022-10-19T11:12:48;15.90;75.40
975;DHT22;6115;49.296;10.602;2022-10-19T11:23:18;16.40;72.90
975;DHT22;6115;49.296;10.602;2022-10-19T11:28:40;16.60;71.40
975;DHT22;6115;49.296;10.602;2022-10-19T11:34:05;16.50;71.50
975;DHT22;6115;49.296;10.602;2022-10-19T11:49:56;16.20;70.30
975;DHT22;6115;49.296;10.602;2022-10-19T12:06:53;16.30;70.50
975;DHT22;6115;49.296;10.602;2022-10-19T12:12:19;16.30;69.40
975;DHT22;6115;49.296;10.602;2022-10-19T12:17:26;16.10;69.80
975;DHT22;6115;49.296;10.602;2022-10-19T12:22:29;16.10;70.30
975;DHT22;6115;49.296;10.602;2022-10-19T12:27:35;15.80;70.00
975;DHT22;6115;49.296;10.602;2022-10-19T12:37:55;15.00;72.20
975;DHT22;6115;49.296;10.602;2022-10-19T12:48:20;14.60;73.70
975;DHT22;6115;49.296;10.602;2022-10-19T12:53:23;14.50;73.60
975;DHT22;6115;49.296;10.602;2022-10-19T12:58:24;14.40;74.60
975;DHT22;6115;49.296;10.602;2022-10-19T13:03:35;14.20;74.00
975;DHT22;6115;49.296;10.602;2022-10-19T13:08:41;14.30;74.90
975;DHT22;6115;49.296;10.602;2022-10-19T13:29:26;14.50;74.60
975;DHT22;6115;49.296;10.602;2022-10-19T13:34:27;14.60;73.70
975;DHT22;6115;49.296;10.602;2022-10-19T13:39:29;14.80;73.90
975;DHT22;6115;49.296;10.602;2022-10-19T13:44:33;14.80;72.30
975;DHT22;6115;49.296;10.602;2022-10-19T14:00:20;14.80;71.90
975;DHT22;6115;49.296;10.602;2022-10-19T14:10:36;14.80;72.00
975;DHT22;6115;49.296;10.602;2022-10-19T14:15:37;15.00;71.90
975;DHT22;6115;49.296;10.602;2022-10-19T14:20:38;15.40;70.20
975;DHT22;6115;49.296;10.602;2022-10-19T14:25:38;15.60;70.30
975;DHT22;6115;49.296;10.602;2022-10-19T14:30:39;15.80;68.90
975;DHT22;6115;49.296;10.602;2022-10-19T14:35:41;15.90;68.50
975;DHT22;6115;49.296;10.602;2022-10-19T14:40:44;15.70;68.80
975;DHT22;6115;49.296;10.602;2022-10-19T14:46:02;15.70;68.50
975;DHT22;6115;49.296;10.602;2022-10-19T14:51:28;15.80;68.30
975;DHT22;6115;49.296;10.602;2022-10-19T14:56:53;15.80;68.00
975;DHT22;6115;49.296;10.602;2022-10-19T15:01:57;15.90;68.30
975;DHT22;6115;49.296;10.602;2022-10-19T15:07:00;16.40;67.80
975;DHT22;6115;49.296;10.602;2022-10-19T15:12:07;16.40;67.60
975;DHT22;6115;49.296;10.602;2022-10-19T15:17:25;16.50;67.10
975;DHT22;6115;49.296;10.602;2022-10-19T15:27:39;16.50;66.50
975;DHT22;6115;49.296;10.602;2022-10-19T15:32:41;16.30;66.80
975;DHT22;6115;49.296;10.602;2022-10-19T15:37:43;16.30;66.60
975;DHT22;6115;49.296;10.602;2022-10-19T15:42:44;15.90;67.80
975;DHT22;6115;49.296;10.602;2022-10-19T15:48:15;15.50;69.00
975;DHT22;6115;49.296;10.602;2022-10-19T15:53:24;15.30;69.40
975;DHT22;6115;49.296;10.602;2022-10-19T15:58:25;15.10;70.00
975;DHT22;6115;49.296;10.602;2022-10-19T16:03:25;15.00;69.80
975;DHT22;6115;49.296;10.602;2022-10-19T16:08:26;14.90;70.40
975;DHT22;6115;49.296;10.602;2022-10-19T16:13:26;14.90;69.80
975;DHT22;6115;49.296;10.602;2022-10-19T16:18:27;14.80;69.80
975;DHT22;6115;49.296;10.602;2022-10-19T16:23:27;14.70;70.10
975;DHT22;6115;49.296;10.602;2022-10-19T16:28:30;14.50;69.90
975;DHT22;6115;49.296;10.602;2022-10-19T16:33:30;14.40;70.10
975;DHT22;6115;49.296;10.602;2022-10-19T16:38:31;14.10;70.30
975;DHT22;6115;49.296;10.602;2022-10-19T16:43:32;13.90;70.70
975;DHT22;6115;49.296;10.602;2022-10-19T16:48:33;13.70;71.00
975;DHT22;6115;49.296;10.602;2022-10-19T16:53:34;13.50;71.60
975;DHT22;6115;49.296;10.602;2022-10-19T16:58:35;13.30;72.30
975;DHT22;6115;49.296;10.602;2022-10-19T17:03:36;13.20;72.30
975;DHT22;6115;49.296;10.602;2022-10-19T17:08:37;13.10;72.20
975;DHT22;6115;49.296;10.602;2022-10-19T17:13:38;12.90;72.40
975;DHT22;6115;49.296;10.602;2022-10-19T17:18:40;12.80;73.10
975;DHT22;6115;49.296;10.602;2022-10-19T17:23:42;12.70;73.70
975;DHT22;6115;49.296;10.602;2022-10-19T17:28:43;12.50;74.40
975;DHT22;6115;49.296;10.602;2022-10-19T17:33:45;12.30;75.40
975;DHT22;6115;49.296;10.602;2022-10-19T17:38:46;12.30;76.20
975;DHT22;6115;49.296;10.602;2022-10-19T17:43:48;12.20;76.10
975;DHT22;6115;49.296;10.602;2022-10-19T17:48:51;12.30;76.00
975;DHT22;6115;49.296;10.602;2022-10-19T17:53:57;12.30;75.70
975;DHT22;6115;49.296;10.602;2022-10-19T17:58:58;12.10;75.20
975;DHT22;6115;49.296;10.602;2022-10-19T18:03:59;11.90;75.90
975;DHT22;6115;49.296;10.602;2022-10-19T18:09:02;11.90;76.20
975;DHT22;6115;49.296;10.602;2022-10-19T18:14:05;11.80;77.40
975;DHT22;6115;49.296;10.602;2022-10-19T18:19:06;11.70;77.30
975;DHT22;6115;49.296;10.602;2022-10-19T18:24:10;11.60;77.20
975;DHT22;6115;49.296;10.602;2022-10-19T18:29:15;11.60;77.20
975;DHT22;6115;49.296;10.602;2022-10-19T18:34:21;11.50;77.60
975;DHT22;6115;49.296;10.602;2022-10-19T18:39:22;11.50;77.50
975;DHT22;6115;49.296;10.602;2022-10-19T18:44:23;11.50;77.10
975;DHT22;6115;49.296;10.602;2022-10-19T18:49:24;11.40;76.60
975;DHT22;6115;49.296;10.602;2022-10-19T18:54:31;11.20;76.30
975;DHT22;6115;49.296;10.602;2022-10-19T18:59:32;11.10;76.90
975;DHT22;6115;49.296;10.602;2022-10-19T19:04:32;11.00;77.40
975;DHT22;6115;49.296;10.602;2022-10-19T19:09:33;10.90;77.50
975;DHT22;6115;49.296;10.602;2022-10-19T19:14:34;10.90;77.40
975;DHT22;6115;49.296;10.602;2022-10-19T19:19:36;10.90;77.30
975;DHT22;6115;49.296;10.602;2022-10-19T19:24:37;10.80;77.30
975;DHT22;6115;49.296;10.602;2022-10-19T19:29:37;10.60;77.20
975;DHT22;6115;49.296;10.602;2022-10-19T19:34:38;10.50;77.50
975;DHT22;6115;49.296;10.602;2022-10-19T19:39:39;10.40;77.70
975;DHT22;6115;49.296;10.602;2022-10-19T19:44:40;10.40;78.00
975;DHT22;6115;49.296;10.602;2022-10-19T19:49:40;10.30;77.80
975;DHT22;6115;49.296;10.602;2022-10-19T19:54:41;10.20;77.90
975;DHT22;6115;49.296;10.602;2022-10-19T19:59:41;10.10;78.20
975;DHT22;6115;49.296;10.602;2022-10-19T20:04:42;10.10;78.90
975;DHT22;6115;49.296;10.602;2022-10-19T20:09:42;10.00;78.80
975;DHT22;6115;49.296;10.602;2022-10-19T20:14:43;9.90;79.70
975;DHT22;6115;49.296;10.602;2022-10-19T20:19:43;9.90;79.70
975;DHT22;6115;49.296;10.602;2022-10-19T20:24:44;9.80;79.60
975;DHT22;6115;49.296;10.602;2022-10-19T20:29:45;9.80;79.60
975;DHT22;6115;49.296;10.602;2022-10-19T20:34:46;9.70;79.60
975;DHT22;6115;49.296;10.602;2022-10-19T20:39:47;9.70;79.70
975;DHT22;6115;49.296;10.602;2022-10-19T20:44:47;9.60;79.80
975;DHT22;6115;49.296;10.602;2022-10-19T20:49:48;9.60;79.40
975;DHT22;6115;49.296;10.602;2022-10-19T20:54:48;9.50;79.30
975;DHT22;6115;49.296;10.602;2022-10-19T20:59:49;9.50;79.40
975;DHT22;6115;49.296;10.602;2022-10-19T21:04:49;9.40;79.30
975;DHT22;6115;49.296;10.602;2022-10-19T21:09:50;9.40;79.30
975;DHT22;6115;49.296;10.602;2022-10-19T21:14:50;9.40;79.30
975;DHT22;6115;49.296;10.602;2022-10-19T21:19:51;9.30;79.20
975;DHT22;6115;49.296;10.602;2022-10-19T21:24:52;9.30;79.20
975;DHT22;6115;49.296;10.602;2022-10-19T21:29:52;9.20;79.10
975;DHT22;6115;49.296;10.602;2022-10-19T21:34:53;9.10;78.90
975;DHT22;6115;49.296;10.602;2022-10-19T21:39:53;9.00;78.90
975;DHT22;6115;49.296;10.602;2022-10-19T21:44:54;8.90;78.80
975;DHT22;6115;49.296;10.602;2022-10-19T21:49:54;8.80;78.70
975;DHT22;6115;49.296;10.602;2022-10-19T21:54:55;8.80;79.20
975;DHT22;6115;49.296;10.602;2022-10-19T21:59:55;8.80;79.40
975;DHT22;6115;49.296;10.602;2022-10-19T22:04:56;8.70;79.30
975;DHT22;6115;49.296;10.602;2022-10-19T22:09:56;8.60;78.90
975;DHT22;6115;49.296;10.602;2022-10-19T22:14:57;8.40;79.60
975;DHT22;6115;49.296;10.602;2022-10-19T22:19:57;8.20;78.80
975;DHT22;6115;49.296;10.602;2022-10-19T22:24:58;8.10;79.20
975;DHT22;6115;49.296;10.602;2022-10-19T22:29:58;8.10;79.30
975;DHT22;6115;49.296;10.602;2022-10-19T22:34:59;8.10;79.30
975;DHT22;6115;49.296;10.602;2022-10-19T22:39:59;8.10;79.20
975;DHT22;6115;49.296;10.602;2022-10-19T22:45:00;8.10;79.00
975;DHT22;6115;49.296;10.602;2022-10-19T22:50:00;8.00;78.80
975;DHT22;6115;49.296;10.602;2022-10-19T22:55:01;7.90;78.70
975;DHT22;6115;49.296;10.602;2022-10-19T23:00:02;7.90;78.80
975;DHT22;6115;49.296;10.602;2022-10-19T23:05:03;7.80;78.60
975;DHT22;6115;49.296;10.602;2022-10-19T23:10:04;7.80;78.50
975;DHT22;6115;49.296;10.602;2022-10-19T23:15:05;7.80;78.30
975;DHT22;6115;49.296;10.602;2022-10-19T23:20:06;7.60;78.10
975;DHT22;6115;49.296;10.602;2022-10-19T23:25:07;7.50;77.90
975;DHT22;6115;49.296;10.602;2022-10-19T23:30:08;7.40;77.80
975;DHT22;6115;49.296;10.602;2022-10-19T23:35:09;7.40;78.00
975;DHT22;6115;49.296;10.602;2022-10-19T23:40:10;7.30;77.90
975;DHT22;6115;49.296;10.602;2022-10-19T23:45:10;7.30;78.20
975;DHT22;6115;49.296;10.602;2022-10-19T23:50:12;7.20;78.60
975;DHT22;6115;49.296;10.602;2022-10-19T23:55:12;7.20;78.90
